createdAt,value
2019-03-22T00:00:25.786Z,1016.42
2019-03-22T00:01:25.779Z,1016.43
2019-03-22T00:02:25.763Z,1016.43
2019-03-22T00:03:25.738Z,1016.37
2019-03-22T00:04:25.739Z,1016.41
2019-03-22T00:05:25.748Z,1016.38
2019-03-22T00:06:25.706Z,1016.38
2019-03-22T00:07:25.715Z,1016.36
2019-03-22T00:08:25.690Z,1016.33
2019-03-22T00:09:25.669Z,1016.35
2019-03-22T00:10:25.675Z,1016.33
2019-03-22T00:11:25.661Z,1016.33
2019-03-22T00:12:25.643Z,1016.35
2019-03-22T00:13:25.647Z,1016.34
2019-03-22T00:14:25.695Z,1016.35
2019-03-22T00:15:25.613Z,1016.36
2019-03-22T00:16:25.609Z,1016.38
2019-03-22T00:17:25.583Z,1016.35
2019-03-22T00:18:25.604Z,1016.37
2019-03-22T00:19:25.572Z,1016.34
2019-03-22T00:20:25.558Z,1016.35
2019-03-22T00:21:25.549Z,1016.29
2019-03-22T00:22:25.543Z,1016.30
2019-03-22T00:23:25.523Z,1016.26
2019-03-22T00:24:25.532Z,1016.23
2019-03-22T00:25:25.498Z,1016.20
2019-03-22T00:26:25.490Z,1016.23
2019-03-22T00:27:25.481Z,1016.24
2019-03-22T00:28:25.483Z,1016.21
2019-03-22T00:29:25.455Z,1016.27
2019-03-22T00:30:25.515Z,1016.27
2019-03-22T00:31:25.453Z,1016.25
2019-03-22T00:32:25.415Z,1016.26
2019-03-22T00:33:25.426Z,1016.19
2019-03-22T00:34:25.418Z,1016.21
2019-03-22T00:35:25.388Z,1016.22
2019-03-22T00:36:25.390Z,1016.18
2019-03-22T00:37:25.361Z,1016.15
2019-03-22T00:38:25.361Z,1016.12
2019-03-22T00:39:25.377Z,1016.15
2019-03-22T00:40:25.335Z,1016.16
2019-03-22T00:41:25.332Z,1016.16
2019-03-22T00:42:25.340Z,1016.15
2019-03-22T00:43:25.303Z,1016.18
2019-03-22T00:44:25.283Z,1016.19
2019-03-22T00:45:25.298Z,1016.17
2019-03-22T00:46:25.267Z,1016.15
2019-03-22T00:47:25.261Z,1016.11
2019-03-22T00:48:25.253Z,1016.16
2019-03-22T00:49:25.237Z,1016.15
2019-03-22T00:50:25.236Z,1016.10
2019-03-22T00:51:25.238Z,1016.07
2019-03-22T00:52:25.212Z,1016.10
2019-03-22T00:53:25.221Z,1016.09
2019-03-22T00:54:25.182Z,1016.09
2019-03-22T00:55:25.186Z,1016.09
2019-03-22T00:56:25.159Z,1016.08
2019-03-22T00:57:28.670Z,1016.12
2019-03-22T00:58:25.139Z,1016.14
2019-03-22T00:59:25.143Z,1016.13
2019-03-22T01:00:25.120Z,1016.17
2019-03-22T01:01:25.119Z,1016.10
2019-03-22T01:02:25.085Z,1016.15
2019-03-22T01:03:25.122Z,1016.10
2019-03-22T01:04:25.078Z,1016.13
2019-03-22T01:05:25.056Z,1016.11
2019-03-22T01:06:25.070Z,1016.12
2019-03-22T01:07:25.038Z,1016.14
2019-03-22T01:08:25.071Z,1016.10
2019-03-22T01:09:25.035Z,1016.16
2019-03-22T01:10:25.017Z,1016.14
2019-03-22T01:11:25.021Z,1016.10
2019-03-22T01:12:24.980Z,1016.10
2019-03-22T01:13:24.995Z,1016.17
2019-03-22T01:14:24.965Z,1016.12
2019-03-22T01:15:24.970Z,1016.15
2019-03-22T01:16:24.974Z,1016.13
2019-03-22T01:17:24.941Z,1016.16
2019-03-22T01:18:24.928Z,1016.08
2019-03-22T01:19:24.939Z,1016.10
2019-03-22T01:20:24.911Z,1016.12
2019-03-22T01:21:24.982Z,1016.10
2019-03-22T01:22:24.877Z,1016.08
2019-03-22T01:23:24.864Z,1016.07
2019-03-22T01:24:24.871Z,1016.07
2019-03-22T01:25:24.860Z,1016.01
2019-03-22T01:26:24.827Z,1016.02
2019-03-22T01:27:24.827Z,1016.06
2019-03-22T01:28:24.806Z,1016.04
2019-03-22T01:29:24.839Z,1016.05
2019-03-22T01:30:24.797Z,1016.06
2019-03-22T01:31:24.780Z,1016.08
2019-03-22T01:32:24.770Z,1016.05
2019-03-22T01:33:24.783Z,1016.08
2019-03-22T01:34:24.745Z,1016.03
2019-03-22T01:35:24.750Z,1016.03
2019-03-22T01:36:24.731Z,1016.03
2019-03-22T01:37:24.702Z,1016.03
2019-03-22T01:38:24.707Z,1016.04
2019-03-22T01:39:24.739Z,1016.04
2019-03-22T01:40:24.683Z,1016.13
2019-03-22T01:41:24.671Z,1016.12
2019-03-22T01:42:24.668Z,1016.10
2019-03-22T01:43:24.672Z,1016.17
2019-03-22T01:44:24.648Z,1016.13
2019-03-22T01:45:24.634Z,1016.16
2019-03-22T01:46:24.611Z,1016.12
2019-03-22T01:47:24.608Z,1016.10
2019-03-22T01:48:24.605Z,1016.10
2019-03-22T01:49:24.625Z,1016.10
2019-03-22T01:50:24.586Z,1016.10
2019-03-22T01:51:24.557Z,1016.08
2019-03-22T01:52:24.569Z,1016.06
2019-03-22T01:53:24.555Z,1016.03
2019-03-22T01:54:24.547Z,1016.03
2019-03-22T01:55:24.523Z,1016.04
2019-03-22T01:56:24.512Z,1016.03
2019-03-22T01:57:24.507Z,1016.02
2019-03-22T01:58:24.483Z,1016.01
2019-03-22T01:59:24.475Z,1016.03
2019-03-22T02:00:24.474Z,1016.07
2019-03-22T02:01:24.471Z,1016.05
2019-03-22T02:02:24.455Z,1016.03
2019-03-22T02:03:24.428Z,1016.01
2019-03-22T02:04:24.434Z,1016.04
2019-03-22T02:05:24.424Z,1016.04
2019-03-22T02:06:24.425Z,1016.09
2019-03-22T02:07:24.395Z,1016.11
2019-03-22T02:08:24.384Z,1016.05
2019-03-22T02:09:24.371Z,1016.05
2019-03-22T02:10:24.403Z,1016.07
2019-03-22T02:11:24.354Z,1016.07
2019-03-22T02:12:24.371Z,1016.09
2019-03-22T02:13:24.359Z,1016.03
2019-03-22T02:14:24.320Z,1016.06
2019-03-22T02:15:24.348Z,1016.00
2019-03-22T02:16:24.301Z,1016.07
2019-03-22T02:17:24.307Z,1016.04
2019-03-22T02:18:24.273Z,1016.05
2019-03-22T02:19:24.256Z,1016.04
2019-03-22T02:20:24.265Z,1016.07
2019-03-22T02:21:24.255Z,1016.08
2019-03-22T02:22:24.240Z,1016.03
2019-03-22T02:23:24.221Z,1016.04
2019-03-22T02:24:24.220Z,1016.09
2019-03-22T02:25:24.247Z,1016.07
2019-03-22T02:26:24.178Z,1016.08
2019-03-22T02:27:24.183Z,1016.06
2019-03-22T02:28:24.161Z,1016.06
2019-03-22T02:29:24.164Z,1016.01
2019-03-22T02:30:24.143Z,1016.05
2019-03-22T02:31:24.124Z,1016.05
2019-03-22T02:32:24.138Z,1016.00
2019-03-22T02:33:24.116Z,1016.07
2019-03-22T02:34:24.105Z,1015.99
2019-03-22T02:35:29.152Z,1016.03
2019-03-22T02:36:25.075Z,1015.96
2019-03-22T02:37:24.062Z,1015.95
2019-03-22T02:38:24.089Z,1015.97
2019-03-22T02:39:24.080Z,1015.97
2019-03-22T02:40:24.056Z,1015.99
2019-03-22T02:41:24.019Z,1015.95
2019-03-22T02:42:24.027Z,1015.92
2019-03-22T02:43:24.000Z,1015.90
2019-03-22T02:44:23.990Z,1015.91
2019-03-22T02:45:23.985Z,1015.95
2019-03-22T02:46:23.970Z,1015.96
2019-03-22T02:47:24.005Z,1015.95
2019-03-22T02:48:24.009Z,1015.93
2019-03-22T02:49:23.936Z,1015.91
2019-03-22T02:50:23.921Z,1015.93
2019-03-22T02:51:23.949Z,1015.91
2019-03-22T02:52:23.912Z,1015.90
2019-03-22T02:53:23.900Z,1015.92
2019-03-22T02:54:23.891Z,1015.90
2019-03-22T02:55:23.884Z,1015.92
2019-03-22T02:56:23.860Z,1015.88
2019-03-22T02:57:23.885Z,1015.87
2019-03-22T02:58:23.838Z,1015.90
2019-03-22T02:59:23.822Z,1015.85
2019-03-22T03:00:23.818Z,1015.81
2019-03-22T03:01:23.824Z,1015.83
2019-03-22T03:02:23.823Z,1015.85
2019-03-22T03:03:23.815Z,1015.83
2019-03-22T03:04:23.782Z,1015.83
2019-03-22T03:05:23.762Z,1015.85
2019-03-22T03:06:23.764Z,1015.85
2019-03-22T03:07:23.774Z,1015.84
2019-03-22T03:08:23.820Z,1015.84
2019-03-22T03:09:23.735Z,1015.84
2019-03-22T03:10:23.731Z,1015.83
2019-03-22T03:11:23.746Z,1015.86
2019-03-22T03:12:23.770Z,1015.81
2019-03-22T03:13:23.690Z,1015.80
2019-03-22T03:14:23.676Z,1015.80
2019-03-22T03:15:23.662Z,1015.78
2019-03-22T03:16:23.643Z,1015.80
2019-03-22T03:17:23.642Z,1015.79
2019-03-22T03:18:23.656Z,1015.78
2019-03-22T03:19:23.615Z,1015.74
2019-03-22T03:20:23.604Z,1015.78
2019-03-22T03:21:23.646Z,1015.81
2019-03-22T03:22:23.593Z,1015.80
2019-03-22T03:23:23.585Z,1015.80
2019-03-22T03:24:23.568Z,1015.81
2019-03-22T03:25:23.548Z,1015.80
2019-03-22T03:26:23.552Z,1015.76
2019-03-22T03:27:23.526Z,1015.74
2019-03-22T03:28:35.986Z,1015.71
2019-03-22T03:29:24.542Z,1015.67
2019-03-22T03:30:23.507Z,1015.67
2019-03-22T03:31:23.488Z,1015.68
2019-03-22T03:32:23.489Z,1015.70
2019-03-22T03:33:23.475Z,1015.68
2019-03-22T03:34:23.511Z,1015.74
2019-03-22T03:35:23.459Z,1015.68
2019-03-22T03:36:23.429Z,1015.76
2019-03-22T03:37:23.412Z,1015.78
2019-03-22T03:38:23.421Z,1015.76
2019-03-22T03:39:23.421Z,1015.77
2019-03-22T03:40:23.426Z,1015.74
2019-03-22T03:41:23.394Z,1015.73
2019-03-22T03:42:23.372Z,1015.74
2019-03-22T03:43:23.350Z,1015.71
2019-03-22T03:44:23.384Z,1015.69
2019-03-22T03:45:23.343Z,1015.76
2019-03-22T03:46:23.330Z,1015.73
2019-03-22T03:47:23.324Z,1015.72
2019-03-22T03:48:23.306Z,1015.69
2019-03-22T03:49:23.287Z,1015.69
2019-03-22T03:50:23.311Z,1015.70
2019-03-22T03:51:23.284Z,1015.66
2019-03-22T03:52:23.268Z,1015.64
2019-03-22T03:53:23.260Z,1015.66
2019-03-22T03:54:23.233Z,1015.65
2019-03-22T03:55:23.242Z,1015.61
2019-03-22T03:56:23.233Z,1015.62
2019-03-22T03:57:23.227Z,1015.69
2019-03-22T03:58:23.217Z,1015.63
2019-03-22T03:59:23.189Z,1015.60
2019-03-22T04:00:23.185Z,1015.60
2019-03-22T04:01:23.174Z,1015.58
2019-03-22T04:02:23.192Z,1015.57
2019-03-22T04:03:23.181Z,1015.55
2019-03-22T04:04:23.183Z,1015.51
2019-03-22T04:05:23.126Z,1015.55
2019-03-22T04:06:23.101Z,1015.52
2019-03-22T04:07:23.123Z,1015.56
2019-03-22T04:08:23.106Z,1015.53
2019-03-22T04:09:23.077Z,1015.53
2019-03-22T04:10:23.076Z,1015.57
2019-03-22T04:11:23.080Z,1015.61
2019-03-22T04:12:23.039Z,1015.53
2019-03-22T04:13:23.079Z,1015.59
2019-03-22T04:14:23.038Z,1015.55
2019-03-22T04:15:23.001Z,1015.54
2019-03-22T04:16:22.996Z,1015.54
2019-03-22T04:17:22.998Z,1015.54
2019-03-22T04:18:22.990Z,1015.52
2019-03-22T04:19:22.980Z,1015.54
2019-03-22T04:20:22.983Z,1015.57
2019-03-22T04:21:22.943Z,1015.53
2019-03-22T04:22:22.944Z,1015.54
2019-03-22T04:23:22.921Z,1015.56
2019-03-22T04:24:22.911Z,1015.52
2019-03-22T04:25:22.908Z,1015.51
2019-03-22T04:26:22.899Z,1015.54
2019-03-22T04:27:22.902Z,1015.57
2019-03-22T04:28:22.880Z,1015.54
2019-03-22T04:29:22.863Z,1015.58
2019-03-22T04:30:22.854Z,1015.56
2019-03-22T04:31:22.854Z,1015.60
2019-03-22T04:32:22.826Z,1015.56
2019-03-22T04:33:22.835Z,1015.58
2019-03-22T04:34:22.805Z,1015.59
2019-03-22T04:35:22.793Z,1015.59
2019-03-22T04:36:22.785Z,1015.58
2019-03-22T04:37:22.776Z,1015.59
2019-03-22T04:38:22.758Z,1015.58
2019-03-22T04:39:22.749Z,1015.60
2019-03-22T04:40:22.750Z,1015.67
2019-03-22T04:41:22.720Z,1015.60
2019-03-22T04:42:22.738Z,1015.61
2019-03-22T04:43:22.745Z,1015.64
2019-03-22T04:44:22.701Z,1015.66
2019-03-22T04:45:22.682Z,1015.58
2019-03-22T04:46:22.689Z,1015.59
2019-03-22T04:47:22.656Z,1015.63
2019-03-22T04:48:22.643Z,1015.64
2019-03-22T04:49:22.638Z,1015.63
2019-03-22T04:50:22.630Z,1015.64
2019-03-22T04:51:22.626Z,1015.64
2019-03-22T04:52:22.603Z,1015.67
2019-03-22T04:53:22.633Z,1015.63
2019-03-22T04:54:22.590Z,1015.64
2019-03-22T04:55:22.580Z,1015.61
2019-03-22T04:56:22.590Z,1015.68
2019-03-22T04:57:22.570Z,1015.63
2019-03-22T04:58:22.543Z,1015.65
2019-03-22T04:59:22.530Z,1015.60
2019-03-22T05:00:22.517Z,1015.64
2019-03-22T05:01:22.541Z,1015.70
2019-03-22T05:02:22.514Z,1015.68
2019-03-22T05:03:22.490Z,1015.65
2019-03-22T05:04:22.483Z,1015.67
2019-03-22T05:05:22.491Z,1015.69
2019-03-22T05:06:22.451Z,1015.70
2019-03-22T05:07:22.463Z,1015.69
2019-03-22T05:08:22.440Z,1015.69
2019-03-22T05:09:22.429Z,1015.65
2019-03-22T05:10:22.450Z,1015.67
2019-03-22T05:11:22.455Z,1015.68
2019-03-22T05:12:22.428Z,1015.67
2019-03-22T05:13:22.370Z,1015.64
2019-03-22T05:14:22.367Z,1015.63
2019-03-22T05:15:22.361Z,1015.65
2019-03-22T05:16:22.383Z,1015.61
2019-03-22T05:17:22.335Z,1015.64
2019-03-22T05:18:22.344Z,1015.64
2019-03-22T05:19:22.328Z,1015.64
2019-03-22T05:20:22.308Z,1015.67
2019-03-22T05:21:22.312Z,1015.63
2019-03-22T05:22:22.308Z,1015.69
2019-03-22T05:23:22.292Z,1015.64
2019-03-22T05:24:22.267Z,1015.66
2019-03-22T05:25:22.262Z,1015.73
2019-03-22T05:26:22.249Z,1015.71
2019-03-22T05:27:22.246Z,1015.74
2019-03-22T05:28:22.227Z,1015.70
2019-03-22T05:29:30.569Z,1015.73
2019-03-22T05:30:23.194Z,1015.75
2019-03-22T05:31:22.205Z,1015.76
2019-03-22T05:32:22.183Z,1015.74
2019-03-22T05:33:22.174Z,1015.69
2019-03-22T05:34:22.154Z,1015.76
2019-03-22T05:35:22.160Z,1015.72
2019-03-22T05:36:22.141Z,1015.78
2019-03-22T05:37:22.118Z,1015.76
2019-03-22T05:38:22.116Z,1015.78
2019-03-22T05:39:22.102Z,1015.78
2019-03-22T05:40:22.121Z,1015.80
2019-03-22T05:41:22.088Z,1015.81
2019-03-22T05:42:22.094Z,1015.83
2019-03-22T05:43:22.063Z,1015.84
2019-03-22T05:44:22.061Z,1015.83
2019-03-22T05:45:22.041Z,1015.87
2019-03-22T05:46:22.051Z,1015.82
2019-03-22T05:47:22.015Z,1015.84
2019-03-22T05:48:21.998Z,1015.84
2019-03-22T05:49:21.999Z,1015.85
2019-03-22T05:50:21.993Z,1015.81
2019-03-22T05:51:21.981Z,1015.82
2019-03-22T05:52:22.000Z,1015.78
2019-03-22T05:53:21.948Z,1015.82
2019-03-22T05:54:21.935Z,1015.81
2019-03-22T05:55:21.922Z,1015.79
2019-03-22T05:56:21.925Z,1015.80
2019-03-22T05:57:21.912Z,1015.80
2019-03-22T05:58:21.907Z,1015.82
2019-03-22T05:59:21.882Z,1015.83
2019-03-22T06:00:21.894Z,1015.86
2019-03-22T06:01:21.857Z,1015.81
2019-03-22T06:02:21.854Z,1015.83
2019-03-22T06:03:21.860Z,1015.87
2019-03-22T06:04:21.849Z,1015.87
2019-03-22T06:05:21.922Z,1015.87
2019-03-22T06:06:21.831Z,1015.91
2019-03-22T06:07:21.791Z,1015.93
2019-03-22T06:08:21.813Z,1015.94
2019-03-22T06:09:21.801Z,1016.02
2019-03-22T06:10:21.767Z,1015.98
2019-03-22T06:11:21.765Z,1015.96
2019-03-22T06:12:21.738Z,1015.98
2019-03-22T06:13:21.730Z,1015.99
2019-03-22T06:14:21.744Z,1015.95
2019-03-22T06:15:21.743Z,1015.97
2019-03-22T06:16:21.710Z,1015.87
2019-03-22T06:17:21.693Z,1015.95
2019-03-22T06:18:21.676Z,1015.91
2019-03-22T06:19:21.673Z,1015.91
2019-03-22T06:20:21.672Z,1015.90
2019-03-22T06:21:21.671Z,1015.93
2019-03-22T06:22:21.651Z,1015.83
2019-03-22T06:23:21.628Z,1015.88
2019-03-22T06:24:22.381Z,1015.87
2019-03-22T06:25:21.628Z,1015.87
2019-03-22T06:26:21.599Z,1015.93
2019-03-22T06:27:21.586Z,1015.93
2019-03-22T06:28:21.593Z,1015.88
2019-03-22T06:29:21.566Z,1015.92
2019-03-22T06:30:21.546Z,1015.95
2019-03-22T06:31:21.551Z,1016.00
2019-03-22T06:32:21.522Z,1015.92
2019-03-22T06:33:21.515Z,1015.95
2019-03-22T06:34:21.502Z,1015.92
2019-03-22T06:35:21.495Z,1015.92
2019-03-22T06:36:24.008Z,1015.92
2019-03-22T06:37:21.486Z,1015.95
2019-03-22T06:38:21.456Z,1015.90
2019-03-22T06:39:21.457Z,1015.91
2019-03-22T06:40:21.432Z,1015.90
2019-03-22T06:41:21.422Z,1015.87
2019-03-22T06:42:21.430Z,1015.90
2019-03-22T06:43:21.422Z,1015.89
2019-03-22T06:44:21.402Z,1015.87
2019-03-22T06:45:21.380Z,1015.90
2019-03-22T06:46:21.390Z,1015.89
2019-03-22T06:47:21.361Z,1015.94
2019-03-22T06:48:21.368Z,1015.92
2019-03-22T06:49:21.350Z,1016.00
2019-03-22T06:50:21.332Z,1015.95
2019-03-22T06:51:21.335Z,1015.94
2019-03-22T06:52:21.309Z,1015.89
2019-03-22T06:53:21.315Z,1015.93
2019-03-22T06:54:30.986Z,1015.97
2019-03-22T06:55:22.303Z,1015.98
2019-03-22T06:56:21.287Z,1015.99
2019-03-22T06:57:21.251Z,1015.94
2019-03-22T06:58:23.941Z,1015.98
2019-03-22T06:59:21.244Z,1015.93
2019-03-22T07:00:21.234Z,1015.92
2019-03-22T07:01:21.244Z,1015.99
2019-03-22T07:02:21.195Z,1016.01
2019-03-22T07:03:21.186Z,1015.94
2019-03-22T07:04:21.209Z,1015.99
2019-03-22T07:05:21.167Z,1015.95
2019-03-22T07:06:21.160Z,1015.92
2019-03-22T07:07:21.169Z,1015.93
2019-03-22T07:08:21.138Z,1016.06
2019-03-22T07:09:21.120Z,1015.95
2019-03-22T07:10:21.124Z,1015.91
2019-03-22T07:11:21.107Z,1015.99
2019-03-22T07:12:21.093Z,1016.07
2019-03-22T07:13:21.077Z,1016.13
2019-03-22T07:14:21.112Z,1016.16
2019-03-22T07:15:21.059Z,1016.18
2019-03-22T07:16:21.041Z,1016.17
2019-03-22T07:17:21.033Z,1016.21
2019-03-22T07:18:21.023Z,1016.19
2019-03-22T07:19:21.024Z,1016.22
2019-03-22T07:20:21.019Z,1016.15
2019-03-22T07:21:20.991Z,1016.23
2019-03-22T07:22:20.980Z,1016.18
2019-03-22T07:23:20.969Z,1016.23
2019-03-22T07:24:20.976Z,1016.28
2019-03-22T07:25:21.787Z,1016.25
2019-03-22T07:26:20.949Z,1016.16
2019-03-22T07:27:20.938Z,1016.08
2019-03-22T07:28:20.938Z,1016.06
2019-03-22T07:29:20.924Z,1016.04
2019-03-22T07:30:20.891Z,1016.02
2019-03-22T07:31:20.895Z,1016.10
2019-03-22T07:32:20.894Z,1016.06
2019-03-22T07:33:20.897Z,1015.95
2019-03-22T07:34:20.848Z,1015.97
2019-03-22T07:35:20.845Z,1015.98
2019-03-22T07:36:20.930Z,1015.92
2019-03-22T07:37:20.846Z,1015.83
2019-03-22T07:38:21.769Z,1015.79
2019-03-22T07:39:20.816Z,1015.85
2019-03-22T07:40:20.802Z,1015.83
2019-03-22T07:41:20.806Z,1015.87
2019-03-22T07:42:20.771Z,1015.92
2019-03-22T07:43:20.870Z,1015.92
2019-03-22T07:44:20.741Z,1015.95
2019-03-22T07:45:20.730Z,1015.92
2019-03-22T07:46:20.721Z,1016.00
2019-03-22T07:47:20.751Z,1015.97
2019-03-22T07:48:20.716Z,1016.00
2019-03-22T07:49:20.694Z,1016.02
2019-03-22T07:50:20.686Z,1016.04
2019-03-22T07:51:20.684Z,1016.06
2019-03-22T07:52:20.663Z,1016.11
2019-03-22T07:53:20.676Z,1016.13
2019-03-22T07:54:20.635Z,1016.16
2019-03-22T07:55:20.619Z,1016.22
2019-03-22T07:56:20.617Z,1016.21
2019-03-22T07:57:20.615Z,1016.15
2019-03-22T07:58:20.598Z,1016.21
2019-03-22T07:59:20.597Z,1016.27
2019-03-22T08:00:30.183Z,1016.26
2019-03-22T08:01:21.566Z,1016.26
2019-03-22T08:02:20.571Z,1016.29
2019-03-22T08:03:20.549Z,1016.29
2019-03-22T08:04:20.533Z,1016.36
2019-03-22T08:05:20.520Z,1016.27
2019-03-22T08:06:20.528Z,1016.27
2019-03-22T08:07:20.514Z,1016.31
2019-03-22T08:08:20.489Z,1016.40
2019-03-22T08:09:20.471Z,1016.32
2019-03-22T08:10:20.488Z,1016.28
2019-03-22T08:11:20.463Z,1016.28
2019-03-22T08:12:20.450Z,1016.31
2019-03-22T08:13:20.462Z,1016.40
2019-03-22T08:14:20.436Z,1016.31
2019-03-22T08:15:20.413Z,1016.35
2019-03-22T08:16:20.405Z,1016.32
2019-03-22T08:17:20.410Z,1016.38
2019-03-22T08:18:20.384Z,1016.40
2019-03-22T08:19:20.382Z,1016.40
2019-03-22T08:20:20.368Z,1016.42
2019-03-22T08:21:20.353Z,1016.37
2019-03-22T08:22:20.388Z,1016.36
2019-03-22T08:23:20.366Z,1016.28
2019-03-22T08:24:20.319Z,1016.32
2019-03-22T08:25:20.323Z,1016.27
2019-03-22T08:26:20.300Z,1016.22
2019-03-22T08:27:20.277Z,1016.26
2019-03-22T08:28:20.262Z,1016.18
2019-03-22T08:29:20.281Z,1016.16
2019-03-22T08:30:20.270Z,1016.21
2019-03-22T08:31:20.252Z,1016.16
2019-03-22T08:32:20.245Z,1016.09
2019-03-22T08:33:20.237Z,1016.06
2019-03-22T08:34:20.205Z,1015.97
2019-03-22T08:35:20.220Z,1015.90
2019-03-22T08:36:20.197Z,1015.87
2019-03-22T08:37:20.177Z,1015.79
2019-03-22T08:38:20.165Z,1015.76
2019-03-22T08:39:20.152Z,1015.74
2019-03-22T08:40:20.151Z,1015.73
2019-03-22T08:41:20.125Z,1015.69
2019-03-22T08:42:20.119Z,1015.70
2019-03-22T08:43:20.151Z,1015.66
2019-03-22T08:44:20.112Z,1015.69
2019-03-22T08:45:20.101Z,1015.69
2019-03-22T08:46:20.118Z,1015.70
2019-03-22T08:47:32.815Z,1015.75
2019-03-22T08:48:21.051Z,1015.77
2019-03-22T08:49:20.192Z,1015.77
2019-03-22T08:50:20.058Z,1015.78
2019-03-22T08:51:20.037Z,1015.79
2019-03-22T08:52:20.008Z,1015.73
2019-03-22T08:53:20.005Z,1015.78
2019-03-22T08:54:19.992Z,1015.77
2019-03-22T08:55:20.000Z,1015.75
2019-03-22T08:56:20.015Z,1015.74
2019-03-22T08:57:19.970Z,1015.74
2019-03-22T08:58:19.938Z,1015.73
2019-03-22T08:59:19.925Z,1015.71
2019-03-22T09:00:19.955Z,1015.76
2019-03-22T09:01:19.924Z,1015.78
2019-03-22T09:02:19.906Z,1015.76
2019-03-22T09:03:19.908Z,1015.74
2019-03-22T09:04:19.884Z,1015.75
2019-03-22T09:05:19.866Z,1015.76
2019-03-22T09:06:19.877Z,1015.71
2019-03-22T09:07:19.891Z,1015.73
2019-03-22T09:08:19.865Z,1015.68
2019-03-22T09:09:19.863Z,1015.68
2019-03-22T09:10:19.819Z,1015.70
2019-03-22T09:11:19.947Z,1015.72
2019-03-22T09:12:19.801Z,1015.74
2019-03-22T09:13:19.776Z,1015.69
2019-03-22T09:14:19.789Z,1015.66
2019-03-22T09:15:19.765Z,1015.68
2019-03-22T09:16:19.761Z,1015.71
2019-03-22T09:17:19.739Z,1015.69
2019-03-22T09:18:19.767Z,1015.67
2019-03-22T09:19:19.806Z,1015.64
2019-03-22T09:20:19.710Z,1015.66
2019-03-22T09:21:19.717Z,1015.65
2019-03-22T09:22:19.729Z,1015.65
2019-03-22T09:23:19.706Z,1015.62
2019-03-22T09:24:19.661Z,1015.66
2019-03-22T09:25:19.694Z,1015.65
2019-03-22T09:26:20.106Z,1015.68
2019-03-22T09:27:19.624Z,1015.70
2019-03-22T09:28:19.613Z,1015.70
2019-03-22T09:29:19.677Z,1015.68
2019-03-22T09:30:19.607Z,1015.68
2019-03-22T09:31:19.589Z,1015.63
2019-03-22T09:32:19.602Z,1015.64
2019-03-22T09:33:19.561Z,1015.66
2019-03-22T09:34:19.594Z,1015.67
2019-03-22T09:35:19.553Z,1015.68
2019-03-22T09:36:19.580Z,1015.62
2019-03-22T09:37:19.511Z,1015.56
2019-03-22T09:38:19.496Z,1015.61
2019-03-22T09:39:19.518Z,1015.54
2019-03-22T09:40:19.482Z,1015.56
2019-03-22T09:41:19.474Z,1015.59
2019-03-22T09:42:19.483Z,1015.54
2019-03-22T09:43:19.472Z,1015.49
2019-03-22T09:44:19.544Z,1015.54
2019-03-22T09:45:19.448Z,1015.49
2019-03-22T09:46:19.534Z,1015.51
2019-03-22T09:47:19.426Z,1015.51
2019-03-22T09:48:19.433Z,1015.50
2019-03-22T09:49:19.463Z,1015.50
2019-03-22T09:50:19.370Z,1015.52
2019-03-22T09:51:19.371Z,1015.52
2019-03-22T09:52:19.341Z,1015.53
2019-03-22T09:53:19.373Z,1015.53
2019-03-22T09:54:19.337Z,1015.54
2019-03-22T09:55:19.357Z,1015.50
2019-03-22T09:56:19.316Z,1015.53
2019-03-22T09:57:19.305Z,1015.51
2019-03-22T09:58:19.297Z,1015.53
2019-03-22T09:59:19.267Z,1015.48
2019-03-22T10:00:19.268Z,1015.51
2019-03-22T10:01:23.934Z,1015.49
2019-03-22T10:02:20.281Z,1015.46
2019-03-22T10:03:19.255Z,1015.43
2019-03-22T10:04:19.311Z,1015.37
2019-03-22T10:05:19.246Z,1015.35
2019-03-22T10:06:19.224Z,1015.32
2019-03-22T10:07:19.204Z,1015.31
2019-03-22T10:08:19.326Z,1015.30
2019-03-22T10:09:19.162Z,1015.30
2019-03-22T10:10:19.151Z,1015.26
2019-03-22T10:11:19.143Z,1015.25
2019-03-22T10:12:19.178Z,1015.22
2019-03-22T10:13:19.173Z,1015.23
2019-03-22T10:14:21.373Z,1015.18
2019-03-22T10:15:19.102Z,1015.21
2019-03-22T10:16:19.096Z,1015.17
2019-03-22T10:17:19.061Z,1015.18
2019-03-22T10:18:19.107Z,1015.16
2019-03-22T10:19:19.086Z,1015.14
2019-03-22T10:20:19.037Z,1015.10
2019-03-22T10:21:22.758Z,1015.16
2019-03-22T10:22:19.041Z,1015.08
2019-03-22T10:23:21.214Z,1015.10
2019-03-22T10:24:19.012Z,1015.06
2019-03-22T10:25:18.983Z,1015.10
2019-03-22T10:26:18.993Z,1015.07
2019-03-22T10:27:19.000Z,1015.07
2019-03-22T10:28:19.085Z,1015.07
2019-03-22T10:29:18.969Z,1015.05
2019-03-22T10:30:18.957Z,1015.05
2019-03-22T10:31:18.967Z,1015.04
2019-03-22T10:32:18.930Z,1015.02
2019-03-22T10:33:22.891Z,1015.04
2019-03-22T10:34:18.890Z,1014.98
2019-03-22T10:35:25.987Z,1014.95
2019-03-22T10:36:19.874Z,1014.98
2019-03-22T10:37:18.842Z,1014.98
2019-03-22T10:38:30.805Z,1014.97
2019-03-22T10:39:19.852Z,1014.93
2019-03-22T10:40:18.880Z,1014.94
2019-03-22T10:41:18.805Z,1014.95
2019-03-22T10:42:18.830Z,1014.92
2019-03-22T10:43:18.792Z,1014.85
2019-03-22T10:44:18.855Z,1014.88
2019-03-22T10:45:18.777Z,1014.95
2019-03-22T10:46:18.744Z,1014.86
2019-03-22T10:47:18.761Z,1014.83
2019-03-22T10:48:18.725Z,1014.80
2019-03-22T10:49:18.715Z,1014.82
2019-03-22T10:50:18.733Z,1014.78
2019-03-22T10:51:21.423Z,1014.71
2019-03-22T10:52:18.702Z,1014.78
2019-03-22T10:53:18.688Z,1014.79
2019-03-22T10:54:18.664Z,1014.72
2019-03-22T10:55:29.672Z,1014.71
2019-03-22T10:56:19.658Z,1014.71
2019-03-22T10:57:18.638Z,1014.76
2019-03-22T10:58:21.308Z,1014.64
2019-03-22T10:59:18.624Z,1014.63
2019-03-22T11:00:18.603Z,1014.65
2019-03-22T11:01:18.611Z,1014.61
2019-03-22T11:02:18.577Z,1014.67
2019-03-22T11:03:18.563Z,1014.64
2019-03-22T11:04:18.565Z,1014.59
2019-03-22T11:05:18.563Z,1014.58
2019-03-22T11:06:25.942Z,1014.54
2019-03-22T11:07:19.520Z,1014.57
2019-03-22T11:08:18.516Z,1014.55
2019-03-22T11:09:18.492Z,1014.57
2019-03-22T11:10:18.495Z,1014.56
2019-03-22T11:11:18.488Z,1014.55
2019-03-22T11:12:18.489Z,1014.54
2019-03-22T11:13:18.454Z,1014.55
2019-03-22T11:14:18.440Z,1014.52
2019-03-22T11:15:18.474Z,1014.57
2019-03-22T11:16:18.433Z,1014.58
2019-03-22T11:17:18.416Z,1014.53
2019-03-22T11:18:18.400Z,1014.48
2019-03-22T11:19:18.390Z,1014.44
2019-03-22T11:20:18.381Z,1014.51
2019-03-22T11:21:18.380Z,1014.53
2019-03-22T11:22:18.400Z,1014.45
2019-03-22T11:23:18.354Z,1014.44
2019-03-22T11:24:18.358Z,1014.44
2019-03-22T11:25:18.331Z,1014.42
2019-03-22T11:26:18.309Z,1014.47
2019-03-22T11:27:18.334Z,1014.45
2019-03-22T11:28:18.299Z,1014.41
2019-03-22T11:29:18.283Z,1014.42
2019-03-22T11:30:18.267Z,1014.41
2019-03-22T11:31:23.722Z,1014.44
2019-03-22T11:32:19.354Z,1014.41
2019-03-22T11:33:18.229Z,1014.38
2019-03-22T11:34:18.226Z,1014.36
2019-03-22T11:35:18.229Z,1014.38
2019-03-22T11:36:18.212Z,1014.41
2019-03-22T11:37:18.205Z,1014.37
2019-03-22T11:38:18.214Z,1014.37
2019-03-22T11:39:18.166Z,1014.37
2019-03-22T11:40:18.165Z,1014.38
2019-03-22T11:41:18.154Z,1014.34
2019-03-22T11:42:18.133Z,1014.30
2019-03-22T11:43:18.145Z,1014.36
2019-03-22T11:44:18.132Z,1014.28
2019-03-22T11:45:18.123Z,1014.26
2019-03-22T11:46:18.109Z,1014.36
2019-03-22T11:47:18.073Z,1014.38
2019-03-22T11:48:18.116Z,1014.22
2019-03-22T11:49:18.060Z,1014.22
2019-03-22T11:50:18.044Z,1014.24
2019-03-22T11:51:18.084Z,1014.30
2019-03-22T11:52:18.020Z,1014.21
2019-03-22T11:53:18.014Z,1014.27
2019-03-22T11:54:18.034Z,1014.21
2019-03-22T11:55:17.990Z,1014.24
2019-03-22T11:56:17.987Z,1014.24
2019-03-22T11:57:17.973Z,1014.22
2019-03-22T11:58:17.957Z,1014.17
2019-03-22T11:59:17.946Z,1014.23
2019-03-22T12:00:17.962Z,1014.20
2019-03-22T12:01:20.365Z,1014.17
2019-03-22T12:02:22.308Z,1014.13
2019-03-22T12:03:17.905Z,1014.14
2019-03-22T12:04:17.910Z,1014.08
2019-03-22T12:05:17.882Z,1014.06